createdAt,value
2018-03-06T00:00:56.115Z,988.41
2018-03-06T00:01:56.124Z,988.39
2018-03-06T00:02:56.149Z,988.42
2018-03-06T00:03:56.043Z,988.47
2018-03-06T00:05:56.282Z,988.48
2018-03-06T00:06:55.958Z,988.41
2018-03-06T00:07:55.964Z,988.41
2018-03-06T00:08:55.891Z,988.43
2018-03-06T00:09:55.918Z,988.39
2018-03-06T00:10:55.834Z,988.36
2018-03-06T00:11:55.865Z,988.36
2018-03-06T00:12:56.088Z,988.37
2018-03-06T00:13:55.761Z,988.35
2018-03-06T00:14:55.736Z,988.38
2018-03-06T00:15:55.819Z,988.35
2018-03-06T00:16:55.690Z,988.39
2018-03-06T00:17:55.653Z,988.39
2018-03-06T00:18:55.637Z,988.40
2018-03-06T00:19:56.260Z,988.41
2018-03-06T00:20:55.591Z,988.38
2018-03-06T00:21:55.569Z,988.42
2018-03-06T00:22:55.523Z,988.40
2018-03-06T00:23:55.508Z,988.37
2018-03-06T00:24:55.476Z,988.35
2018-03-06T00:25:55.557Z,988.37
2018-03-06T00:26:55.733Z,988.32
2018-03-06T00:27:55.505Z,988.32
2018-03-06T00:28:55.370Z,988.32
2018-03-06T00:29:55.352Z,988.30
2018-03-06T00:30:55.373Z,988.29
2018-03-06T00:31:55.303Z,988.34
2018-03-06T00:32:55.332Z,988.27
2018-03-06T00:33:55.555Z,988.33
2018-03-06T00:34:55.221Z,988.31
2018-03-06T00:35:55.196Z,988.30
2018-03-06T00:36:55.181Z,988.30
2018-03-06T00:37:55.143Z,988.34
2018-03-06T00:38:55.168Z,988.35
2018-03-06T00:39:55.091Z,988.32
2018-03-06T00:40:55.302Z,988.29
2018-03-06T00:41:55.043Z,988.30
2018-03-06T00:42:55.025Z,988.29
2018-03-06T00:43:55.093Z,988.26
2018-03-06T00:44:54.965Z,988.24
2018-03-06T00:45:54.940Z,988.25
2018-03-06T00:46:54.906Z,988.26
2018-03-06T00:47:55.192Z,988.26
2018-03-06T00:48:54.914Z,988.26
2018-03-06T00:49:54.828Z,988.27
2018-03-06T00:50:54.853Z,988.28
2018-03-06T00:51:54.789Z,988.28
2018-03-06T00:52:54.757Z,988.29
2018-03-06T00:53:54.726Z,988.27
2018-03-06T00:54:55.006Z,988.27
2018-03-06T00:55:54.687Z,988.23
2018-03-06T00:56:55.013Z,988.20
2018-03-06T00:57:54.626Z,988.18
2018-03-06T00:58:54.597Z,988.19
2018-03-06T00:59:54.567Z,988.20
2018-03-06T01:00:54.857Z,988.17
2018-03-06T01:01:54.524Z,988.15
2018-03-06T01:02:54.546Z,988.11
2018-03-06T01:03:54.472Z,988.09
2018-03-06T01:04:54.448Z,988.14
2018-03-06T01:05:54.426Z,988.12
2018-03-06T01:06:54.691Z,988.13
2018-03-06T01:07:54.365Z,988.10
2018-03-06T01:08:55.578Z,988.12
2018-03-06T01:09:54.294Z,988.13
2018-03-06T01:10:54.276Z,988.14
2018-03-06T01:11:54.255Z,988.14
2018-03-06T01:12:54.532Z,988.12
2018-03-06T01:13:54.251Z,988.14
2018-03-06T01:14:54.186Z,988.09
2018-03-06T01:15:54.705Z,988.10
2018-03-06T01:16:54.123Z,988.12
2018-03-06T01:17:54.098Z,988.08
2018-03-06T01:18:54.375Z,988.05
2018-03-06T01:19:54.046Z,988.04
2018-03-06T01:20:54.019Z,988.04
2018-03-06T01:21:54.037Z,988.07
2018-03-06T01:22:53.961Z,988.01
2018-03-06T01:23:53.933Z,988.00
2018-03-06T01:24:54.205Z,987.96
2018-03-06T01:25:53.935Z,988.00
2018-03-06T01:26:53.866Z,988.00
2018-03-06T01:27:53.840Z,987.98
2018-03-06T01:28:53.806Z,987.99
2018-03-06T01:29:53.890Z,987.99
2018-03-06T01:30:54.057Z,987.94
2018-03-06T01:31:53.730Z,987.96
2018-03-06T01:32:53.704Z,987.95
2018-03-06T01:33:53.778Z,987.92
2018-03-06T01:34:53.649Z,987.91
2018-03-06T01:35:53.623Z,987.93
2018-03-06T01:36:53.604Z,987.92
2018-03-06T01:37:53.859Z,987.92
2018-03-06T01:38:53.534Z,987.92
2018-03-06T01:39:53.563Z,987.94
2018-03-06T01:40:53.498Z,987.99
2018-03-06T01:41:53.468Z,988.00
2018-03-06T01:42:53.450Z,987.92
2018-03-06T01:43:53.409Z,987.99
2018-03-06T01:44:53.685Z,988.01
2018-03-06T01:45:53.413Z,988.02
2018-03-06T01:46:53.331Z,987.98
2018-03-06T01:47:53.303Z,987.97
2018-03-06T01:48:53.288Z,987.91
2018-03-06T01:49:53.264Z,987.94
2018-03-06T01:50:53.237Z,987.91
2018-03-06T01:51:53.650Z,987.89
2018-03-06T01:52:53.177Z,987.88
2018-03-06T01:53:53.153Z,987.93
2018-03-06T01:54:53.119Z,987.89
2018-03-06T01:55:53.094Z,987.89
2018-03-06T01:56:53.134Z,987.87
2018-03-06T01:57:53.069Z,987.88
2018-03-06T01:58:53.321Z,987.87
2018-03-06T01:59:52.998Z,987.84
2018-03-06T02:00:52.968Z,987.82
2018-03-06T02:01:52.945Z,987.82
2018-03-06T02:02:52.964Z,987.82
2018-03-06T02:03:52.885Z,987.78
2018-03-06T02:04:52.867Z,987.70
2018-03-06T02:05:53.076Z,987.71
2018-03-06T02:06:52.812Z,987.68
2018-03-06T02:07:52.856Z,987.69
2018-03-06T02:08:52.753Z,987.70
2018-03-06T02:09:52.732Z,987.70
2018-03-06T02:11:52.926Z,987.63
2018-03-06T02:12:52.654Z,987.61
2018-03-06T02:13:52.676Z,987.57
2018-03-06T02:14:52.603Z,987.56
2018-03-06T02:15:52.587Z,987.56
2018-03-06T02:16:52.591Z,987.49
2018-03-06T02:17:52.518Z,987.53
2018-03-06T02:18:52.800Z,987.49
2018-03-06T02:19:52.470Z,987.51
2018-03-06T02:20:52.428Z,987.47
2018-03-06T02:21:52.464Z,987.47
2018-03-06T02:22:52.387Z,987.48
2018-03-06T02:23:52.369Z,987.50
2018-03-06T02:24:52.642Z,987.50
2018-03-06T02:25:52.308Z,987.52
2018-03-06T02:26:52.271Z,987.47
2018-03-06T02:27:52.318Z,987.47
2018-03-06T02:28:52.227Z,987.46
2018-03-06T02:29:52.194Z,987.40
2018-03-06T02:30:52.419Z,987.47
2018-03-06T02:31:52.150Z,987.44
2018-03-06T02:32:52.127Z,987.43
2018-03-06T02:33:52.149Z,987.43
2018-03-06T02:34:52.067Z,987.44
2018-03-06T02:35:52.035Z,987.43
2018-03-06T02:36:52.321Z,987.43
2018-03-06T02:37:52.036Z,987.48
2018-03-06T02:38:51.975Z,987.44
2018-03-06T02:39:51.952Z,987.48
2018-03-06T02:40:51.919Z,987.43
2018-03-06T02:41:51.894Z,987.40
2018-03-06T02:42:52.211Z,987.38
2018-03-06T02:43:51.840Z,987.34
2018-03-06T02:44:51.810Z,987.37
2018-03-06T02:45:51.781Z,987.39
2018-03-06T02:46:51.761Z,987.38
2018-03-06T02:47:51.740Z,987.39
2018-03-06T02:48:52.104Z,987.40
2018-03-06T02:49:51.676Z,987.40
2018-03-06T02:50:51.641Z,987.37
2018-03-06T02:51:51.627Z,987.40
2018-03-06T02:52:51.597Z,987.39
2018-03-06T02:53:51.689Z,987.37
2018-03-06T02:54:51.850Z,987.38
2018-03-06T02:55:51.519Z,987.38
2018-03-06T02:56:51.490Z,987.32
2018-03-06T02:57:51.471Z,987.34
2018-03-06T02:58:51.812Z,987.39
2018-03-06T03:00:51.687Z,987.32
2018-03-06T03:01:51.385Z,987.31
2018-03-06T03:02:51.319Z,987.30
2018-03-06T03:03:51.394Z,987.29
2018-03-06T03:04:51.319Z,987.30
2018-03-06T03:05:51.247Z,987.31
2018-03-06T03:06:51.221Z,987.31
2018-03-06T03:07:51.496Z,987.31
2018-03-06T03:08:51.173Z,987.32
2018-03-06T03:09:51.137Z,987.28
2018-03-06T03:10:51.177Z,987.26
2018-03-06T03:11:51.102Z,987.27
2018-03-06T03:12:51.060Z,987.19
2018-03-06T03:13:51.047Z,987.24
2018-03-06T03:14:51.310Z,987.26
2018-03-06T03:15:51.001Z,987.22
2018-03-06T03:16:51.005Z,987.21
2018-03-06T03:17:50.929Z,987.22
2018-03-06T03:18:50.903Z,987.20
2018-03-06T03:19:50.872Z,987.16
2018-03-06T03:20:50.854Z,987.22
2018-03-06T03:21:51.285Z,987.22
2018-03-06T03:22:50.803Z,987.24
2018-03-06T03:23:50.775Z,987.25
2018-03-06T03:24:50.756Z,987.28
2018-03-06T03:25:50.726Z,987.30
2018-03-06T03:26:50.698Z,987.27
2018-03-06T03:27:50.721Z,987.30
2018-03-06T03:28:50.941Z,987.35
2018-03-06T03:29:50.615Z,987.35
2018-03-06T03:30:50.642Z,987.34
2018-03-06T03:31:50.565Z,987.31
2018-03-06T03:33:50.504Z,987.37
2018-03-06T03:34:50.477Z,987.35
2018-03-06T03:35:50.759Z,987.37
2018-03-06T03:36:50.468Z,987.36
2018-03-06T03:37:50.403Z,987.33
2018-03-06T03:38:50.380Z,987.29
2018-03-06T03:39:50.338Z,987.31
2018-03-06T03:40:50.312Z,987.29
2018-03-06T03:41:50.634Z,987.30
2018-03-06T03:42:50.414Z,987.28
2018-03-06T03:43:50.249Z,987.28
2018-03-06T03:44:50.264Z,987.26
2018-03-06T03:46:50.171Z,987.21
2018-03-06T03:47:50.133Z,987.17
2018-03-06T03:48:50.397Z,987.16
2018-03-06T03:49:50.096Z,987.13
2018-03-06T03:50:50.096Z,987.12
2018-03-06T03:51:50.043Z,987.09
2018-03-06T03:52:50.006Z,987.09
2018-03-06T03:53:49.974Z,987.02
2018-03-06T03:54:50.239Z,987.02
2018-03-06T03:55:49.921Z,986.97
2018-03-06T03:56:49.948Z,986.95
2018-03-06T03:57:49.937Z,986.96
2018-03-06T03:58:49.847Z,986.93
2018-03-06T03:59:49.862Z,986.92
2018-03-06T04:00:50.095Z,986.91
2018-03-06T04:01:50.103Z,986.91
2018-03-06T04:02:49.731Z,986.90
2018-03-06T04:03:49.700Z,986.93
2018-03-06T04:04:49.683Z,986.87
2018-03-06T04:05:49.661Z,986.89
2018-03-06T04:06:49.925Z,986.87
2018-03-06T04:08:49.623Z,986.92
2018-03-06T04:09:49.555Z,986.94
2018-03-06T04:10:49.517Z,986.96
2018-03-06T04:11:49.497Z,986.96
2018-03-06T04:12:49.718Z,986.97
2018-03-06T04:13:49.444Z,986.98
2018-03-06T04:14:49.513Z,986.93
2018-03-06T04:15:49.390Z,986.97
2018-03-06T04:16:49.362Z,986.95
2018-03-06T04:17:49.343Z,987.00
2018-03-06T04:18:49.312Z,987.03
2018-03-06T04:19:49.635Z,987.02
2018-03-06T04:20:49.252Z,987.03
2018-03-06T04:21:49.230Z,987.04
2018-03-06T04:22:49.200Z,987.06
2018-03-06T04:23:49.172Z,987.05
2018-03-06T04:24:49.144Z,987.06
2018-03-06T04:25:49.507Z,987.03
2018-03-06T04:26:49.098Z,987.01
2018-03-06T04:28:49.526Z,987.03
2018-03-06T04:29:49.015Z,987.02
2018-03-06T04:30:48.991Z,987.04
2018-03-06T04:31:49.015Z,987.04
2018-03-06T04:32:49.245Z,987.04
2018-03-06T04:33:48.931Z,987.04
2018-03-06T04:34:48.989Z,987.04
2018-03-06T04:35:48.859Z,987.08
2018-03-06T04:36:48.833Z,987.01
2018-03-06T04:37:48.808Z,987.04
2018-03-06T04:38:48.771Z,987.05
2018-03-06T04:40:49.017Z,987.03
2018-03-06T04:41:48.741Z,987.02
2018-03-06T04:42:48.672Z,987.04
2018-03-06T04:43:48.638Z,987.02
2018-03-06T04:44:48.623Z,987.03
2018-03-06T04:45:48.652Z,987.04
2018-03-06T04:46:48.577Z,987.02
2018-03-06T04:47:48.837Z,986.99
2018-03-06T04:48:48.514Z,987.02
2018-03-06T04:49:48.479Z,987.00
2018-03-06T04:50:48.550Z,987.00
2018-03-06T04:51:48.475Z,986.98
2018-03-06T04:52:48.390Z,986.98
2018-03-06T04:53:48.566Z,987.01
2018-03-06T04:55:48.674Z,986.98
2018-03-06T04:56:48.350Z,987.02
2018-03-06T04:58:48.234Z,986.99
2018-03-06T04:59:48.211Z,986.95
2018-03-06T05:00:48.189Z,986.93
2018-03-06T05:01:48.169Z,986.93
2018-03-06T05:02:48.490Z,986.94
2018-03-06T05:03:48.117Z,986.92
2018-03-06T05:05:48.064Z,986.90
2018-03-06T05:06:48.021Z,986.90
2018-03-06T05:07:47.989Z,986.89
2018-03-06T05:08:48.326Z,986.90
2018-03-06T05:09:47.933Z,986.88
2018-03-06T05:10:47.917Z,986.88
2018-03-06T05:11:47.893Z,986.91
2018-03-06T05:12:47.868Z,986.92
2018-03-06T05:13:47.844Z,986.85
2018-03-06T05:14:48.178Z,986.88
2018-03-06T05:15:47.896Z,986.91
2018-03-06T05:16:47.761Z,986.90
2018-03-06T05:17:47.734Z,986.88
2018-03-06T05:18:47.704Z,986.87
2018-03-06T05:19:47.667Z,986.86
2018-03-06T05:20:47.997Z,986.84
2018-03-06T05:22:47.592Z,986.81
2018-03-06T05:23:47.570Z,986.79
2018-03-06T05:24:47.557Z,986.81
2018-03-06T05:25:47.573Z,986.82
2018-03-06T05:26:47.797Z,986.87
2018-03-06T05:27:47.471Z,986.83
2018-03-06T05:28:47.432Z,986.86
2018-03-06T05:29:47.504Z,986.90
2018-03-06T05:30:47.487Z,986.88
2018-03-06T05:31:47.348Z,986.86
2018-03-06T05:32:47.622Z,986.85
2018-03-06T05:33:47.304Z,986.85
2018-03-06T05:34:47.301Z,986.82
2018-03-06T05:35:47.244Z,986.82
2018-03-06T05:36:47.265Z,986.80
2018-03-06T05:37:47.201Z,986.80
2018-03-06T05:38:47.172Z,986.79
2018-03-06T05:39:47.438Z,986.80
2018-03-06T05:40:47.170Z,986.78
2018-03-06T05:41:47.097Z,986.78
2018-03-06T05:42:47.053Z,986.76
2018-03-06T05:43:47.083Z,986.75
2018-03-06T05:44:47.005Z,986.74
2018-03-06T05:45:46.983Z,986.74
2018-03-06T05:47:47.181Z,986.74
2018-03-06T05:49:46.909Z,986.74
2018-03-06T05:50:46.832Z,986.71
2018-03-06T05:51:46.820Z,986.73
2018-03-06T05:52:46.835Z,986.74
2018-03-06T05:53:46.819Z,986.74
2018-03-06T05:54:46.973Z,986.72
2018-03-06T05:56:46.667Z,986.75
2018-03-06T05:57:46.693Z,986.74
2018-03-06T05:59:46.587Z,986.80
2018-03-06T06:00:46.563Z,986.84
2018-03-06T06:01:46.841Z,986.83
2018-03-06T06:02:46.505Z,986.82
2018-03-06T06:03:46.545Z,986.88
2018-03-06T06:04:46.451Z,986.83
2018-03-06T06:05:46.432Z,986.85
2018-03-06T06:06:46.412Z,986.86
2018-03-06T06:07:46.370Z,986.83
2018-03-06T06:08:47.003Z,986.88
2018-03-06T06:09:46.318Z,986.87
2018-03-06T06:10:46.302Z,986.85
2018-03-06T06:11:46.263Z,986.91
2018-03-06T06:12:46.236Z,986.91
2018-03-06T06:13:46.208Z,986.90
2018-03-06T06:14:46.241Z,986.89
2018-03-06T06:15:46.470Z,986.84
2018-03-06T06:16:46.128Z,986.89
2018-03-06T06:17:46.109Z,986.81
2018-03-06T06:18:46.095Z,986.82
2018-03-06T06:20:46.088Z,986.82
2018-03-06T06:21:46.013Z,986.85
2018-03-06T06:22:46.288Z,986.86
2018-03-06T06:23:45.958Z,986.84
2018-03-06T06:24:45.931Z,986.86
2018-03-06T06:25:45.910Z,986.83
2018-03-06T06:26:45.972Z,986.86
2018-03-06T06:27:45.855Z,986.85
2018-03-06T06:28:46.122Z,986.81
2018-03-06T06:29:45.802Z,986.82
2018-03-06T06:30:45.830Z,986.80
2018-03-06T06:31:45.793Z,986.81
2018-03-06T06:32:45.717Z,986.83
2018-03-06T06:33:45.831Z,986.80
2018-03-06T06:34:45.892Z,986.82
2018-03-06T06:35:45.617Z,986.84
2018-03-06T06:36:45.646Z,986.79
2018-03-06T06:37:45.703Z,986.80
2018-03-06T06:38:45.798Z,986.83
2018-03-06T06:39:45.713Z,986.84
2018-03-06T06:40:45.958Z,986.82
2018-03-06T06:41:45.609Z,986.84
2018-03-06T06:42:45.553Z,986.84
2018-03-06T06:43:45.475Z,986.87
2018-03-06T06:44:45.560Z,986.89
2018-03-06T06:45:45.347Z,986.83
2018-03-06T06:46:45.852Z,986.82
2018-03-06T06:47:45.512Z,986.87
2018-03-06T06:48:45.305Z,986.84
2018-03-06T06:49:45.548Z,986.82
2018-03-06T06:50:45.303Z,986.83
2018-03-06T06:51:45.224Z,986.82
2018-03-06T06:52:45.607Z,986.81
2018-03-06T06:53:45.471Z,986.81
2018-03-06T06:54:45.107Z,986.79
2018-03-06T06:55:45.084Z,986.85
2018-03-06T06:56:45.098Z,986.82
2018-03-06T06:57:45.208Z,986.85
2018-03-06T06:58:45.326Z,986.82
2018-03-06T06:59:44.977Z,986.84
2018-03-06T07:00:44.948Z,986.87
2018-03-06T07:01:44.927Z,986.86
2018-03-06T07:03:44.934Z,986.91
2018-03-06T07:04:44.846Z,986.89
2018-03-06T07:05:45.119Z,986.91
2018-03-06T07:06:44.795Z,986.91
2018-03-06T07:07:44.839Z,986.90
2018-03-06T07:08:44.752Z,986.89
2018-03-06T07:09:44.878Z,986.88
2018-03-06T07:10:44.693Z,986.87
2018-03-06T07:11:44.662Z,986.88
2018-03-06T07:12:46.186Z,986.86
2018-03-06T07:13:44.620Z,986.85
2018-03-06T07:14:44.582Z,986.85
2018-03-06T07:15:44.582Z,986.85
2018-03-06T07:16:44.573Z,986.82
2018-03-06T07:17:44.505Z,986.85
2018-03-06T07:18:44.528Z,986.88
2018-03-06T07:19:44.704Z,986.92
2018-03-06T07:20:44.444Z,986.91
2018-03-06T07:21:44.401Z,986.88
2018-03-06T07:22:44.375Z,986.89
2018-03-06T07:23:44.398Z,986.96
2018-03-06T07:24:44.388Z,986.98
2018-03-06T07:25:44.472Z,986.93
2018-03-06T07:26:44.791Z,986.95
2018-03-06T07:27:44.472Z,986.95
2018-03-06T07:28:44.643Z,986.93
2018-03-06T07:29:44.537Z,986.97
2018-03-06T07:30:44.299Z,986.99
2018-03-06T07:31:44.161Z,987.01
2018-03-06T07:32:44.133Z,987.02
2018-03-06T07:33:44.407Z,987.04
2018-03-06T07:34:44.076Z,987.06
2018-03-06T07:35:44.116Z,987.05
2018-03-06T07:36:44.036Z,987.07
2018-03-06T07:37:44.734Z,987.11
2018-03-06T07:38:43.979Z,987.14
2018-03-06T07:39:43.963Z,987.10
2018-03-06T07:40:44.239Z,987.14
2018-03-06T07:41:43.959Z,987.14
2018-03-06T07:42:43.885Z,987.14
2018-03-06T07:43:43.855Z,987.13
2018-03-06T07:44:43.833Z,987.19
2018-03-06T07:45:43.806Z,987.19
2018-03-06T07:46:44.108Z,987.20
2018-03-06T07:47:43.820Z,987.17
2018-03-06T07:48:43.749Z,987.19
2018-03-06T07:49:43.726Z,987.23
2018-03-06T07:50:43.696Z,987.22
2018-03-06T07:51:43.681Z,987.28
2018-03-06T07:52:44.003Z,987.24
2018-03-06T07:53:43.627Z,987.26
2018-03-06T07:54:43.609Z,987.26
2018-03-06T07:55:43.588Z,987.20
2018-03-06T07:56:43.564Z,987.24
2018-03-06T07:57:43.555Z,987.27
2018-03-06T07:59:44.169Z,987.20
2018-03-06T08:00:43.544Z,987.21
2018-03-06T08:01:43.562Z,987.19
2018-03-06T08:03:43.653Z,987.17
2018-03-06T08:04:43.410Z,987.19
2018-03-06T08:05:43.688Z,987.20
2018-03-06T08:06:43.419Z,987.19
2018-03-06T08:07:43.333Z,987.18
2018-03-06T08:08:43.313Z,987.21
2018-03-06T08:09:43.290Z,987.18
2018-03-06T08:10:43.276Z,987.19
2018-03-06T08:11:43.596Z,987.18
2018-03-06T08:12:43.285Z,987.20
2018-03-06T08:13:43.221Z,987.17
2018-03-06T08:14:43.198Z,987.16
2018-03-06T08:15:43.200Z,987.20
2018-03-06T08:16:43.214Z,987.17
2018-03-06T08:17:43.436Z,987.18
2018-03-06T08:18:43.122Z,987.18
2018-03-06T08:20:43.194Z,987.21
2018-03-06T08:21:43.061Z,987.20
2018-03-06T08:22:43.048Z,987.23
2018-03-06T08:23:43.544Z,987.24
2018-03-06T08:24:43.186Z,987.26
2018-03-06T08:25:43.199Z,987.22
2018-03-06T08:26:43.199Z,987.20
2018-03-06T08:28:42.946Z,987.24
2018-03-06T08:29:43.272Z,987.29
2018-03-06T08:30:42.895Z,987.31
2018-03-06T08:31:42.869Z,987.28
2018-03-06T08:32:42.861Z,987.29
2018-03-06T08:33:42.832Z,987.31
2018-03-06T08:34:42.836Z,987.35
2018-03-06T08:35:42.862Z,987.33
2018-03-06T08:36:43.084Z,987.33
2018-03-06T08:37:42.783Z,987.36
2018-03-06T08:38:42.766Z,987.32
2018-03-06T08:39:42.732Z,987.33
2018-03-06T08:40:42.771Z,987.30
2018-03-06T08:41:42.752Z,987.33
2018-03-06T08:42:42.986Z,987.37
2018-03-06T08:43:42.721Z,987.34
2018-03-06T08:44:42.649Z,987.34
2018-03-06T08:45:42.630Z,987.40
2018-03-06T08:46:42.606Z,987.45
2018-03-06T08:47:42.593Z,987.44
2018-03-06T08:49:42.923Z,987.44
2018-03-06T08:50:42.543Z,987.48
2018-03-06T08:51:42.533Z,987.45
2018-03-06T08:52:42.521Z,987.46
2018-03-06T08:53:42.501Z,987.45
2018-03-06T08:54:42.469Z,987.46
2018-03-06T08:55:42.512Z,987.43
2018-03-06T08:56:42.752Z,987.45
2018-03-06T08:57:42.475Z,987.41
2018-03-06T08:58:42.420Z,987.42
2018-03-06T08:59:42.401Z,987.41
2018-03-06T09:00:42.434Z,987.40
2018-03-06T09:01:42.359Z,987.40
2018-03-06T09:02:42.651Z,987.43
2018-03-06T09:03:42.382Z,987.51
2018-03-06T09:04:42.309Z,987.44
2018-03-06T09:05:42.337Z,987.45
2018-03-06T09:06:42.288Z,987.42
2018-03-06T09:08:42.593Z,987.40
2018-03-06T09:09:42.234Z,987.39
2018-03-06T09:10:42.243Z,987.37
2018-03-06T09:11:42.209Z,987.39
2018-03-06T09:12:42.193Z,987.46
2018-03-06T09:13:42.177Z,987.42
2018-03-06T09:14:42.512Z,987.44
2018-03-06T09:15:42.147Z,987.46
2018-03-06T09:16:42.115Z,987.49
2018-03-06T09:17:42.108Z,987.52
2018-03-06T09:19:42.127Z,987.52
2018-03-06T09:20:42.353Z,987.48
2018-03-06T09:21:44.116Z,987.52
2018-03-06T09:22:42.222Z,987.50
2018-03-06T09:23:42.020Z,987.51
2018-03-06T09:24:42.007Z,987.48
2018-03-06T09:25:42.036Z,987.53
2018-03-06T09:26:42.267Z,987.50
2018-03-06T09:27:41.960Z,987.51
2018-03-06T09:28:41.924Z,987.50
2018-03-06T09:29:41.919Z,987.53
2018-03-06T09:30:41.914Z,987.58
2018-03-06T09:31:42.001Z,987.55
2018-03-06T09:32:41.883Z,987.52
2018-03-06T09:33:42.160Z,987.58
2018-03-06T09:34:41.891Z,987.55
2018-03-06T09:35:41.828Z,987.54
2018-03-06T09:36:41.804Z,987.53
2018-03-06T09:37:41.851Z,987.55
2018-03-06T09:38:41.779Z,987.59
2018-03-06T09:39:42.077Z,987.61
2018-03-06T09:40:41.762Z,987.59
2018-03-06T09:41:41.744Z,987.61
2018-03-06T09:42:41.722Z,987.62
2018-03-06T09:43:41.782Z,987.58
2018-03-06T09:44:41.709Z,987.49
2018-03-06T09:45:41.942Z,987.52
2018-03-06T09:46:41.680Z,987.54
2018-03-06T09:47:41.661Z,987.59
2018-03-06T09:48:41.693Z,987.60
2018-03-06T09:49:41.620Z,987.63
2018-03-06T09:50:41.658Z,987.58
2018-03-06T09:51:41.908Z,987.62
2018-03-06T09:52:41.594Z,987.49
2018-03-06T09:53:41.577Z,987.52
2018-03-06T09:54:41.575Z,987.47
2018-03-06T09:55:41.605Z,987.48
2018-03-06T09:56:41.552Z,987.45
2018-03-06T09:57:41.571Z,987.42
2018-03-06T09:58:41.802Z,987.39
2018-03-06T09:59:41.489Z,987.34
2018-03-06T10:00:41.509Z,987.35
2018-03-06T10:02:41.456Z,987.31
2018-03-06T10:03:41.494Z,987.37
2018-03-06T10:04:41.834Z,987.38
2018-03-06T10:05:41.402Z,987.43
2018-03-06T10:06:41.393Z,987.42
2018-03-06T10:07:41.387Z,987.47
2018-03-06T10:08:41.378Z,987.40
2018-03-06T10:09:41.374Z,987.43
2018-03-06T10:10:41.454Z,987.43
2018-03-06T10:11:41.651Z,987.44
2018-03-06T10:12:41.325Z,987.43
2018-03-06T10:13:41.322Z,987.42
2018-03-06T10:14:41.291Z,987.46
2018-03-06T10:15:41.630Z,987.45
2018-03-06T10:16:41.263Z,987.41
2018-03-06T10:17:41.256Z,987.43
2018-03-06T10:18:41.490Z,987.37
2018-03-06T10:19:41.236Z,987.34
2018-03-06T10:20:41.212Z,987.35
2018-03-06T10:21:41.241Z,987.27
2018-03-06T10:22:41.236Z,987.24
2018-03-06T10:23:41.639Z,987.24
2018-03-06T10:24:41.236Z,987.33
2018-03-06T10:25:41.506Z,987.31
2018-03-06T10:26:41.230Z,987.29
2018-03-06T10:27:41.134Z,987.36
2018-03-06T10:28:41.113Z,987.38
2018-03-06T10:29:41.158Z,987.33
2018-03-06T10:30:41.142Z,987.36
2018-03-06T10:31:41.377Z,987.38
2018-03-06T10:32:41.082Z,987.36
2018-03-06T10:33:41.047Z,987.36
2018-03-06T10:34:41.038Z,987.39
2018-03-06T10:35:41.022Z,987.50
2018-03-06T10:36:41.056Z,987.50
2018-03-06T10:37:41.004Z,987.50
2018-03-06T10:38:41.298Z,987.49
2018-03-06T10:39:40.973Z,987.52
2018-03-06T10:40:40.965Z,987.51
2018-03-06T10:41:40.943Z,987.51
2018-03-06T10:42:40.984Z,987.44
2018-03-06T10:43:40.928Z,987.40
2018-03-06T10:44:41.154Z,987.39
2018-03-06T10:45:40.896Z,987.27
2018-03-06T10:46:40.887Z,987.39
2018-03-06T10:47:40.874Z,987.40
2018-03-06T10:48:41.241Z,987.39
2018-03-06T10:49:41.247Z,987.36
2018-03-06T10:50:41.247Z,987.35
2018-03-06T10:51:40.927Z,987.35
2018-03-06T10:52:40.813Z,987.34
2018-03-06T10:53:44.444Z,987.33
2018-03-06T10:54:41.640Z,987.35
2018-03-06T10:55:42.329Z,987.35
2018-03-06T10:56:41.930Z,987.26
2018-03-06T10:58:40.795Z,987.25
2018-03-06T10:59:40.742Z,987.20
2018-03-06T11:00:40.723Z,987.18
2018-03-06T11:01:40.727Z,987.23
2018-03-06T11:02:41.161Z,987.24
2018-03-06T11:03:40.752Z,987.24
2018-03-06T11:04:40.725Z,987.20
2018-03-06T11:05:40.669Z,987.24
2018-03-06T11:06:40.707Z,987.24
2018-03-06T11:07:40.687Z,987.36
2018-03-06T11:08:40.931Z,987.28
2018-03-06T11:09:40.623Z,987.25
2018-03-06T11:10:40.605Z,987.32
2018-03-06T11:11:40.603Z,987.29
2018-03-06T11:12:40.641Z,987.36
2018-03-06T11:13:40.577Z,987.39
2018-03-06T11:14:40.907Z,987.37
2018-03-06T11:15:40.539Z,987.40
2018-03-06T11:16:40.523Z,987.36
2018-03-06T11:17:40.521Z,987.25
2018-03-06T11:19:40.492Z,987.19
2018-03-06T11:20:40.837Z,987.16
2018-03-06T11:21:40.484Z,987.21
2018-03-06T11:22:40.470Z,987.21
2018-03-06T11:23:40.439Z,987.28
2018-03-06T11:24:40.429Z,987.21
2018-03-06T11:25:40.422Z,987.18
2018-03-06T11:26:40.760Z,987.14
2018-03-06T11:27:40.397Z,987.14
2018-03-06T11:28:40.382Z,987.19
2018-03-06T11:29:40.413Z,987.25
2018-03-06T11:30:40.373Z,987.25
2018-03-06T11:31:40.358Z,987.22
2018-03-06T11:33:40.620Z,987.15
2018-03-06T11:34:40.363Z,987.03
2018-03-06T11:36:40.291Z,986.98
2018-03-06T11:37:40.278Z,986.97
2018-03-06T11:38:40.259Z,987.02
2018-03-06T11:39:40.603Z,986.98
2018-03-06T11:40:40.247Z,987.00
2018-03-06T11:41:40.238Z,986.99
2018-03-06T11:42:40.232Z,986.96
2018-03-06T11:43:40.282Z,986.96
2018-03-06T11:44:40.213Z,986.91
2018-03-06T11:46:40.553Z,986.81
2018-03-06T11:47:40.182Z,986.86
2018-03-06T11:48:40.173Z,986.86
2018-03-06T11:50:40.169Z,986.88
2018-03-06T11:51:40.181Z,986.91
2018-03-06T11:53:40.412Z,986.83
2018-03-06T11:54:40.084Z,986.91
2018-03-06T11:55:40.083Z,986.92
2018-03-06T11:56:40.118Z,986.89
2018-03-06T11:57:40.058Z,986.88
2018-03-06T11:58:40.062Z,986.79
2018-03-06T11:59:40.355Z,986.77
2018-03-06T12:01:40.021Z,986.86
2018-03-06T12:02:40.072Z,986.90
2018-03-06T12:03:40.046Z,986.90
2018-03-06T12:04:40.021Z,986.92
2018-03-06T12:05:40.216Z,986.94
2018-03-06T12:06:39.962Z,986.88
2018-03-06T12:07:39.994Z,986.81
2018-03-06T12:08:39.941Z,986.81
2018-03-06T12:09:39.939Z,986.77
2018-03-06T12:11:40.216Z,986.79
2018-03-06T12:12:39.900Z,986.81
2018-03-06T12:13:39.944Z,986.86
2018-03-06T12:14:40.117Z,986.84
2018-03-06T12:15:39.869Z,986.83
2018-03-06T12:16:39.872Z,986.81
2018-03-06T12:17:40.518Z,986.80
2018-03-06T12:18:39.951Z,986.77
2018-03-06T12:19:39.826Z,986.81
2018-03-06T12:20:39.806Z,986.77
2018-03-06T12:21:39.795Z,986.80
2018-03-06T12:22:39.846Z,986.78
2018-03-06T12:23:40.088Z,986.78
2018-03-06T12:24:39.773Z,986.74
2018-03-06T12:25:39.770Z,986.69
2018-03-06T12:26:39.745Z,986.68
2018-03-06T12:27:39.744Z,986.65
2018-03-06T12:28:40.231Z,986.63
2018-03-06T12:29:40.024Z,986.63
2018-03-06T12:30:39.724Z,986.59
2018-03-06T12:31:39.701Z,986.61
2018-03-06T12:32:39.690Z,986.57
2018-03-06T12:33:39.686Z,986.55
2018-03-06T12:34:39.723Z,986.50
2018-03-06T12:35:39.963Z,986.55
2018-03-06T12:36:39.656Z,986.59
2018-03-06T12:37:39.650Z,986.55
2018-03-06T12:38:39.687Z,986.51
2018-03-06T12:39:39.628Z,986.54
2018-03-06T12:40:39.638Z,986.49
2018-03-06T12:41:39.923Z,986.47
2018-03-06T12:42:39.595Z,986.47
2018-03-06T12:43:39.588Z,986.47
2018-03-06T12:44:40.016Z,986.48
2018-03-06T12:45:39.547Z,986.51
2018-03-06T12:46:39.644Z,986.52
2018-03-06T12:49:39.811Z,986.53
2018-03-06T12:50:39.515Z,986.54
2018-03-06T12:51:39.540Z,986.49
2018-03-06T12:52:39.483Z,986.52
2018-03-06T12:53:39.464Z,986.49
2018-03-06T12:54:39.478Z,986.46
2018-03-06T12:55:39.438Z,986.43
2018-03-06T12:56:39.718Z,986.43
2018-03-06T12:57:39.463Z,986.45
2018-03-06T12:58:39.416Z,986.45
2018-03-06T12:59:39.397Z,986.38
2018-03-06T13:00:40.639Z,986.37
2018-03-06T13:01:40.627Z,986.33
2018-03-06T13:02:39.668Z,986.36
2018-03-06T13:03:39.461Z,986.30
2018-03-06T13:07:39.659Z,986.33
2018-03-06T13:08:39.597Z,986.32